Birmingham, AL (35218)

10:41 PM CST on March 04, 2015 (GMT -0600)
UAB HHB | Change Station
CLOSE
Current Station
Personal Weather Station
Location: Birmingham, AL
Elevation: 617 ft
Nearby Weather Stations
Active Advisory: Freezing Rain Advisory

Elev 617 ft 33.50 °N, 86.81 °W | Updated 52 seconds ago

Overcast
Overcast
51.4 °F
Feels Like 51.4 °F
N
9.0
Wind Variable Wind from NNE
Gusts 15.0 mph

Today
High -- | Low -- °F
--% Chance of Precip.
Yesterday
High -- | Low -- °F
Precip. -- in
6:12 AM 5:46 PM
Full, 100% visible
Pressure 29.95 in
Visibility 10.0 miles
Clouds Overcast 1000 ft
Dew Point 50 °F
Humidity 93%
Rainfall in
Snow Depth Not available.
UV 0 out of 12
Pollen 8.00 out of 12
Air Quality Not available.
Flu Activity Not available.
METAR KBHM 050353Z 35009KT 10SM OVC010 12/10 A2996 RMK AO2 CIG 007V011 SLP140 T01170100

More Conditions Fewer Conditions

Pressure 29.95 in
Visibility 10.0 miles
Clouds Overcast 1000 ft
Dew Point 50 °F
Humidity 93%
Rainfall in
Snow Depth Not available.
UV 0 out of 12
Pollen 8.00 out of 12
Air Quality Not available.
Flu Activity Not available.
METAR KBHM 050353Z 35009KT 10SM OVC010 12/10 A2996 RMK AO2 CIG 007V011 SLP140 T01170100

More Conditions Fewer Conditions

10-Day Weather Forecast

Almanac

Astronomy

Mar. 04, 2015 Rise Set
Actual Time
Civil Twilight
Nautical Twilight
Astronomical Twilight
Moon
Length of Visible Light
Length of Day
Tomorrow will be .
, % of the Moon is Illuminated

Today's Extremes

State Highs State Lows

Community

WunderPhotos

Upload Photos

1,802,677 photos uploaded!

WunderBlogs® & News

Nearby

Air Quality

  Air Quality AQ Index Pollutant
Not available.

Snow Depth

Station Depth Elevation

Earthquake Activity

City Distance Mag. Time & Date
Minimum magnitude displayed is 2.5.

Coastal Water Temperatures

Place Temperature

Nearby Weather Stations

Freezing Rain Advisory
Statement as of 8:39 PM CST on March 04, 2015

... Freezing Rain Advisory remains in effect from 3 am to 3 PM CST
Thursday...

* timing... from 3 am Thursday morning through 3 PM Thursday
afternoon.

* Location... areas along and north of a Livingston... to
Pelham... to Pell City... to Anniston line.

Precautionary/preparedness actions...

A Freezing Rain Advisory means that periods of freezing rain or
freezing drizzle will cause travel difficulties. Be prepared for
slippery roads. Slow down and use caution while driving. Be
prepared for an upgrade to a Winter Storm Warning if needed.